In Rescue
 
Wind Gusting 00 knots
07
December 19, 2018 10:20 AM EST
Weather Information
Wind Direction
  210 °
Wind Speed
  07 kt (8 mph)
Wind Gust
  00 kt (0 mph)
Altimeter
29.96 in
Visibility
10 SM
Temperature
03° C
37° F
Dewpoint
-03° C
27° F
Humidity
65%
1hr Rain Fall
00.00 in.
24hr Rain Fall
00.00 in.
Sky Condition
Clear
VFR

METAR KD95 191520Z AUTO 21007KT 10SM CLR 03/M03 A2996 RMK AO2 T00251031

FAA Disclaimer: The data displayed is for advisory purposes only and is not to be used for flight planning or operations.